Time;durP1;ratioP1;P1;durP2;ratioP2;P2;SDS_P1;SDS_P2;PMS_P1;PMS_P2;Temp;Humidity;BMP_temperature;BMP_pressure;BME280_temperature;BME280_humidity;BME280_pressure;Samples;Min_cycle;Max_cycle;Signal;HPM_P1;HPM_P2
2024/03/07 00:00:17;;;;;;;20.67;12.82;;;;;;;8.44;87.49;101686.66;5067336;28;20829;-74
2024/03/07 00:02:51;;;;;;;27.92;13.38;;;;;;;8.27;88.67;101677.06;5074278;28;20870;-75
2024/03/07 00:05:21;;;;;;;24.23;13.60;;;;;;;8.29;88.88;101688.59;5092935;28;20712;-74
2024/03/07 00:07:48;;;;;;;19.13;12.98;;;;;;;8.48;88.46;101686.94;5107872;28;20059;-74
2024/03/07 00:10:16;;;;;;;22.42;12.82;;;;;;;8.56;87.78;101684.47;5074961;28;20057;-73
2024/03/07 00:12:45;;;;;;;21.83;12.77;;;;;;;8.45;87.92;101691.06;5065143;28;20052;-75
2024/03/07 00:15:13;;;;;;;22.77;13.60;;;;;;;8.43;87.52;101673.22;5100828;28;20055;-75
2024/03/07 00:17:41;;;;;;;19.33;12.40;;;;;;;8.30;88.15;101674.59;5090026;28;20048;-75
2024/03/07 00:20:13;;;;;;;20.63;12.77;;;;;;;8.33;88.47;101670.50;5089247;28;20060;-73
2024/03/07 00:22:42;;;;;;;18.25;12.05;;;;;;;8.44;87.88;101658.41;5088520;28;20044;-74
2024/03/07 00:25:09;;;;;;;20.05;12.05;;;;;;;8.45;87.78;101671.88;5091272;28;20062;-75
2024/03/07 00:27:38;;;;;;;20.55;11.80;;;;;;;8.21;88.54;101673.47;5071614;28;20052;-76
2024/03/07 00:30:08;;;;;;;17.45;11.80;;;;;;;8.14;89.67;101674.84;5087452;28;20051;-76
2024/03/07 00:32:38;;;;;;;20.98;12.10;;;;;;;8.18;89.57;101665.78;5098176;28;20056;-74
2024/03/07 00:35:10;;;;;;;18.80;11.68;;;;;;;8.25;89.41;101676.50;5102801;28;20506;-76
2024/03/07 00:37:37;;;;;;;19.00;12.00;;;;;;;8.47;88.46;101664.16;5088263;28;20056;-75
2024/03/07 00:40:06;;;;;;;18.73;11.75;;;;;;;8.20;88.72;101674.56;5086116;28;20051;-75
2024/03/07 00:42:33;;;;;;;18.52;11.45;;;;;;;8.23;88.20;101663.03;5108769;28;20058;-74
2024/03/07 00:45:01;;;;;;;17.88;11.15;;;;;;;8.34;88.60;101669.38;5110658;28;20058;-75
2024/03/07 00:47:29;;;;;;;18.30;11.25;;;;;;;8.09;88.83;101661.94;5109525;28;20055;-76
2024/03/07 00:49:56;;;;;;;16.42;10.80;;;;;;;8.06;88.89;101665.25;5075304;28;20051;-74
2024/03/07 00:52:25;;;;;;;15.15;10.30;;;;;;;8.20;88.83;101671.00;5110969;28;20643;-75
2024/03/07 00:54:52;;;;;;;19.80;10.95;;;;;;;8.16;88.92;101667.19;5075180;28;20433;-75
2024/03/07 00:57:19;;;;;;;14.95;10.07;;;;;;;8.39;88.47;101664.72;5091713;28;20516;-75
2024/03/07 00:59:48;;;;;;;19.38;10.60;;;;;;;8.37;88.17;101668.84;5090530;28;20059;-76
2024/03/07 01:02:17;;;;;;;16.40;10.35;;;;;;;8.59;87.10;101661.97;5087948;28;20048;-74
2024/03/07 01:04:44;;;;;;;15.60;10.70;;;;;;;8.25;87.80;101669.13;5087444;28;20052;-74
2024/03/07 01:07:12;;;;;;;18.10;10.52;;;;;;;8.15;87.94;101660.03;5055032;28;20273;-75
2024/03/07 01:09:39;;;;;;;15.23;10.35;;;;;;;8.17;88.19;101668.81;5035243;28;20052;-75
2024/03/07 01:12:09;;;;;;;16.75;10.80;;;;;;;8.32;88.05;101666.91;5068564;28;20052;-75
2024/03/07 01:14:37;;;;;;;;;;;;;;;8.34;87.32;101655.66;5113080;27;20104;-76
2024/03/07 01:17:07;;;;;;;16.15;10.57;;;;;;;8.13;87.82;101662.22;5091201;28;19947;-76
2024/03/07 01:19:35;;;;;;;16.63;10.60;;;;;;;8.25;88.22;101663.63;5086843;28;20051;-74
2024/03/07 01:22:02;;;;;;;15.70;10.90;;;;;;;8.59;87.06;101653.72;5085998;28;20054;-75
2024/03/07 01:24:30;;;;;;;17.10;9.55;;;;;;;8.34;87.35;101656.50;5086737;28;20047;-75
2024/03/07 01:26:57;;;;;;;15.77;9.68;;;;;;;8.34;86.87;101645.50;5086182;28;20067;-75
2024/03/07 01:29:24;;;;;;;19.10;10.68;;;;;;;8.38;86.56;101645.78;5087245;28;20068;-74
2024/03/07 01:31:52;;;;;;;16.08;10.63;;;;;;;8.17;86.36;101647.69;5066907;28;20059;-74
2024/03/07 01:34:19;;;;;;;17.13;10.23;;;;;;;8.09;86.81;101641.94;5082994;28;20075;-76
2024/03/07 01:36:47;;;;;;;15.10;9.85;;;;;;;8.22;86.48;101622.97;5066884;28;20503;-76
2024/03/07 01:39:14;;;;;;;16.40;10.32;;;;;;;8.25;86.35;101622.47;5084856;28;20117;-74
2024/03/07 01:41:42;;;;;;;18.58;10.50;;;;;;;8.29;85.79;101618.06;5092773;28;20554;-75
2024/03/07 01:44:09;;;;;;;14.93;10.15;;;;;;;8.41;85.71;101620.50;5092932;28;20054;-74
2024/03/07 01:46:36;;;;;;;16.10;10.05;;;;;;;8.55;84.75;101611.44;5091717;28;20062;-75
2024/03/07 01:49:07;;;;;;;16.52;10.20;;;;;;;8.48;84.15;101610.06;5090438;28;20059;-75
2024/03/07 01:51:36;;;;;;;18.55;10.85;;;;;;;8.45;84.16;101608.72;5092388;28;20052;-75
2024/03/07 01:54:03;;;;;;;14.77;10.30;;;;;;;8.41;84.29;101601.28;5091845;28;20048;-75
2024/03/07 01:56:31;;;;;;;14.90;9.63;;;;;;;8.40;84.73;101596.91;5087148;28;20059;-75
2024/03/07 01:59:01;;;;;;;;;;;;;;;8.36;84.29;101587.59;5054725;28;20070;-75
2024/03/07 02:01:28;;;;;;;15.63;9.48;;;;;;;8.03;85.55;101588.97;5072720;28;19920;-74
2024/03/07 02:03:56;;;;;;;16.88;10.80;;;;;;;8.23;85.46;101588.13;5070377;28;20052;-74
2024/03/07 02:06:25;;;;;;;16.60;10.77;;;;;;;8.14;84.70;101579.66;5108410;28;20173;-75
2024/03/07 02:08:52;;;;;;;19.65;11.30;;;;;;;8.30;84.77;101580.47;5080495;28;20058;-74
2024/03/07 02:11:20;;;;;;;17.27;10.48;;;;;;;7.96;85.85;101581.03;5087111;28;20052;-74
2024/03/07 02:13:48;;;;;;;20.08;10.48;;;;;;;8.02;85.62;101579.09;5070386;28;20056;-75
2024/03/07 02:16:15;;;;;;;17.70;10.60;;;;;;;8.06;85.31;101569.22;5087223;28;20056;-75
2024/03/07 02:18:43;;;;;;;16.23;10.13;;;;;;;8.04;85.26;101568.66;5036768;28;20141;-74
2024/03/07 02:21:11;;;;;;;15.73;10.13;;;;;;;7.79;86.49;101574.97;5087021;28;20044;-77
2024/03/07 02:23:39;;;;;;;15.43;10.40;;;;;;;7.83;86.77;101570.59;5088402;28;20696;-75
2024/03/07 02:26:06;;;;;;;16.98;11.07;;;;;;;7.78;86.48;101570.59;5089682;28;20052;-75
2024/03/07 02:28:34;;;;;;;20.23;12.13;;;;;;;7.93;85.92;101567.03;5090401;28;20059;-75
2024/03/07 02:31:02;;;;;;;17.38;10.52;;;;;;;7.92;85.82;101554.41;5068841;28;20468;-73
2024/03/07 02:33:32;;;;;;;21.65;11.30;;;;;;;7.96;85.29;101561.00;5077328;28;20061;-75
2024/03/07 02:35:59;;;;;;;21.45;12.75;;;;;;;7.82;85.75;101555.25;5069043;28;20053;-74
2024/03/07 02:38:27;;;;;;;20.58;11.52;;;;;;;7.81;85.45;101548.09;5072017;28;20056;-76
2024/03/07 02:40:54;;;;;;;20.02;11.00;;;;;;;7.79;85.53;101552.22;5070981;28;20060;-75
2024/03/07 02:43:22;;;;;;;17.77;10.10;;;;;;;7.91;85.52;101552.78;5038070;28;20665;-75
2024/03/07 02:45:50;;;;;;;18.48;10.30;;;;;;;7.56;86.13;101553.59;5087568;28;20044;-74
2024/03/07 02:48:18;;;;;;;15.55;9.85;;;;;;;7.72;87.35;101544.25;5055147;28;20063;-76
2024/03/07 02:50:47;;;;;;;16.35;9.90;;;;;;;7.65;87.44;101551.13;5081777;28;20059;-75
2024/03/07 02:53:15;;;;;;;20.70;11.00;;;;;;;7.44;87.72;101543.97;5097108;28;20060;-75
2024/03/07 02:55:42;;;;;;;24.45;12.60;;;;;;;7.60;88.02;101543.72;5076412;28;20047;-74
2024/03/07 02:58:10;;;;;;;35.28;15.32;;;;;;;7.39;88.00;101547.53;5091774;28;20060;-76
2024/03/07 03:00:37;;;;;;;32.97;15.00;;;;;;;7.46;88.68;101547.28;5092859;28;20059;-75
2024/03/07 03:03:05;;;;;;;33.75;15.18;;;;;;;7.46;87.92;101541.81;5092009;28;20060;-76
2024/03/07 03:05:32;;;;;;;24.35;12.95;;;;;;;7.58;88.17;101534.94;5090502;28;20044;-73
2024/03/07 03:08:00;;;;;;;24.83;12.50;;;;;;;7.79;87.10;101531.09;5074067;28;20054;-75
2024/03/07 03:10:30;;;;;;;28.90;12.80;;;;;;;7.64;86.89;101541.25;5072989;28;20052;-74
2024/03/07 03:12:59;;;;;;;23.88;11.68;;;;;;;7.48;87.40;101536.88;5089342;28;20064;-75
2024/03/07 03:15:27;;;;;;;26.65;12.02;;;;;;;7.47;88.09;101533.31;5073074;28;20158;-74
2024/03/07 03:17:57;;;;;;;29.73;13.15;;;;;;;7.69;87.27;101522.03;5072107;28;20787;-74
2024/03/07 03:20:25;;;;;;;32.00;13.60;;;;;;;7.59;87.13;101516.56;5072505;28;20056;-73
2024/03/07 03:22:53;;;;;;;31.75;14.75;;;;;;;7.73;86.91;101518.50;5088874;28;20071;-74
2024/03/07 03:25:45;;;;;;;32.13;13.98;;;;;;;7.61;86.66;101520.69;5051196;28;20261;-73
2024/03/07 03:28:12;;;;;;;27.88;13.52;;;;;;;7.62;87.00;101514.09;5068988;28;20052;-74
2024/03/07 03:30:41;;;;;;;25.90;12.18;;;;;;;7.65;86.92;101516.28;5078783;28;20056;-73
2024/03/07 03:33:08;;;;;;;25.88;12.18;;;;;;;7.77;86.46;101510.53;5071063;28;20068;-74
2024/03/07 03:35:37;;;;;;;30.13;13.30;;;;;;;7.61;86.84;101508.91;5071716;28;20074;-74
2024/03/07 03:38:04;;;;;;;34.42;13.88;;;;;;;7.65;86.99;101501.78;5071563;28;20059;-74
2024/03/07 03:40:32;;;;;;;25.25;12.00;;;;;;;7.51;87.36;101506.16;5090022;28;20044;-74
2024/03/07 03:43:03;;;;;;;20.13;10.77;;;;;;;7.53;87.60;101512.19;5059984;28;20054;-75
2024/03/07 03:45:33;;;;;;;20.48;10.35;;;;;;;7.41;88.00;101519.88;5057308;28;20055;-74
2024/03/07 03:48:02;;;;;;;35.45;16.00;;;;;;;7.26;88.24;101517.09;5089450;28;20056;-73
2024/03/07 03:50:31;;;;;;;26.80;12.80;;;;;;;6.95;89.57;101516.22;5088172;28;20063;-74
2024/03/07 03:53:02;;;;;;;25.00;11.43;;;;;;;6.96;90.90;101508.84;5104588;28;20158;-74
2024/03/07 03:55:29;;;;;;;20.30;11.52;;;;;;;6.95;90.56;101513.50;5090273;28;20055;-74
2024/03/07 03:57:56;;;;;;;19.25;10.98;;;;;;;7.11;91.09;101514.34;5088730;28;20062;-74
2024/03/07 04:00:24;;;;;;;24.80;10.93;;;;;;;7.25;89.93;101508.06;5072233;28;20063;-75
2024/03/07 04:02:51;;;;;;;18.08;10.20;;;;;;;6.97;90.50;101511.31;5096930;28;20048;-75
2024/03/07 04:05:21;;;;;;;18.05;10.25;;;;;;;7.02;90.89;101508.56;5071533;28;20082;-74
2024/03/07 04:07:48;;;;;;;16.60;10.00;;;;;;;7.01;91.03;101511.59;5071582;28;20059;-73
2024/03/07 04:10:17;;;;;;;16.00;10.60;;;;;;;7.24;90.52;101511.06;5071359;28;20048;-74
2024/03/07 04:12:45;;;;;;;19.42;10.70;;;;;;;7.20;89.81;101509.97;5087676;28;20048;-74
2024/03/07 04:15:16;;;;;;;21.02;11.60;;;;;;;7.22;90.20;101505.84;5070430;28;20055;-75
2024/03/07 04:17:46;;;;;;;21.52;11.98;;;;;;;7.29;89.51;101503.69;5064004;28;20554;-75
2024/03/07 04:20:16;;;;;;;20.20;11.32;;;;;;;7.41;89.53;101504.22;5079619;28;20052;-74
2024/03/07 04:22:45;;;;;;;21.45;9.40;;;;;;;7.46;88.62;101493.25;5086233;28;20067;-75
2024/03/07 04:25:14;;;;;;;16.02;9.73;;;;;;;7.58;87.78;101495.75;5088092;28;20052;-74
2024/03/07 04:27:42;;;;;;;18.73;9.93;;;;;;;7.40;87.84;101493.53;5087261;28;20055;-74
2024/03/07 04:30:10;;;;;;;21.75;10.30;;;;;;;7.48;87.75;101487.53;5086139;28;20044;-75
2024/03/07 04:32:38;;;;;;;17.25;10.23;;;;;;;7.48;87.61;101493.81;5086830;28;20083;-76
2024/03/07 04:35:07;;;;;;;15.10;9.40;;;;;;;7.31;87.89;101496.00;5086411;28;20060;-76
2024/03/07 04:37:39;;;;;;;19.97;9.40;;;;;;;7.14;88.93;101491.88;5089068;28;20060;-75
2024/03/07 04:40:15;;;;;;;16.23;9.48;;;;;;;7.13;89.39;101490.25;5089006;28;20419;-74
2024/03/07 04:42:45;;;;;;;14.90;8.95;;;;;;;7.26;88.91;101492.44;5087564;28;20094;-75
2024/03/07 04:45:13;;;;;;;15.87;9.30;;;;;;;7.11;89.64;101486.94;5087519;28;20044;-75
2024/03/07 04:47:42;;;;;;;16.25;8.07;;;;;;;7.34;88.61;101489.19;5085494;28;20839;-74
2024/03/07 04:50:12;;;;;;;14.15;8.60;;;;;;;7.35;87.96;101479.84;5074503;28;20048;-74
2024/03/07 04:52:40;;;;;;;13.68;8.48;;;;;;;7.41;87.89;101484.25;5067753;28;20056;-75
2024/03/07 04:55:09;;;;;;;14.70;8.20;;;;;;;7.30;87.97;101490.81;5084218;28;20055;-75
2024/03/07 04:57:39;;;;;;;14.88;8.65;;;;;;;7.28;87.60;101484.78;5055212;28;20048;-74
2024/03/07 05:00:13;;;;;;;21.00;8.57;;;;;;;7.32;88.00;101480.41;5085865;28;20056;-74
2024/03/07 05:02:41;;;;;;;17.73;8.80;;;;;;;7.07;88.32;101491.31;5069938;28;20789;-74
2024/03/07 05:05:09;;;;;;;22.35;10.35;;;;;;;7.02;88.77;101485.84;5086949;28;20059;-73
2024/03/07 05:07:36;;;;;;;20.17;10.82;;;;;;;6.80;89.85;101481.41;5087269;28;20055;-74
2024/03/07 05:10:06;;;;;;;17.02;10.48;;;;;;;6.95;90.49;101488.00;5087087;28;20063;-74
2024/03/07 05:12:33;;;;;;;18.17;11.13;;;;;;;6.95;90.06;101485.28;5049939;28;20068;-74
2024/03/07 05:15:03;;;;;;;18.58;11.15;;;;;;;6.67;90.66;101484.66;5086271;28;20047;-76
2024/03/07 05:17:34;;;;;;;19.67;11.73;;;;;;;6.69;92.43;101485.19;5086988;28;20052;-74
2024/03/07 05:20:03;;;;;;;17.80;10.75;;;;;;;6.97;91.28;101480.34;5050776;28;20063;-74
2024/03/07 05:22:30;;;;;;;18.30;11.13;;;;;;;7.15;90.61;101485.31;5084240;28;20052;-75
2024/03/07 05:24:58;;;;;;;23.90;11.88;;;;;;;6.99;90.03;101483.66;5067085;28;20056;-74
2024/03/07 05:27:27;;;;;;;19.25;11.82;;;;;;;6.88;90.31;101480.06;5086440;28;20059;-74
2024/03/07 05:29:55;;;;;;;18.92;11.60;;;;;;;7.06;89.89;101492.41;5088070;28;20411;-75
2024/03/07 05:32:26;;;;;;;17.40;10.90;;;;;;;7.22;89.14;101486.69;5070487;28;20052;-76
2024/03/07 05:34:54;;;;;;;22.10;12.55;;;;;;;7.09;89.60;101484.47;5069821;28;20059;-75
2024/03/07 05:37:22;;;;;;;20.92;12.60;;;;;;;7.09;89.04;101476.28;5100923;28;20062;-74
2024/03/07 05:39:51;;;;;;;22.10;12.82;;;;;;;6.92;89.89;101474.88;5092222;28;20051;-73
2024/03/07 05:42:21;;;;;;;21.95;12.27;;;;;;;6.88;91.00;101482.81;5053012;28;20052;-76
2024/03/07 05:44:49;;;;;;;21.88;12.95;;;;;;;6.60;92.41;101481.34;5069349;28;20048;-73
2024/03/07 05:47:17;;;;;;;19.67;12.75;;;;;;;6.67;92.84;101479.19;5068807;28;20079;-75
2024/03/07 05:49:44;;;;;;;18.05;11.48;;;;;;;6.68;92.04;101474.50;5085843;28;20056;-74
2024/03/07 05:52:12;;;;;;;20.63;11.50;;;;;;;6.85;92.50;101480.59;5086838;28;20054;-75
2024/03/07 05:54:39;;;;;;;18.27;10.35;;;;;;;7.06;91.09;101478.72;5085901;28;20056;-75
2024/03/07 05:57:07;;;;;;;19.00;11.00;;;;;;;6.78;91.56;101488.25;5069320;28;20051;-75
2024/03/07 05:59:34;;;;;;;19.60;11.23;;;;;;;6.58;91.39;101485.44;5088092;28;20052;-74
2024/03/07 06:02:02;;;;;;;17.45;10.70;;;;;;;6.54;93.67;101485.16;5087695;28;20052;-74
2024/03/07 06:04:31;;;;;;;20.95;11.05;;;;;;;6.56;92.89;101482.13;5069826;28;20044;-74
2024/03/07 06:06:59;;;;;;;22.48;12.55;;;;;;;6.42;94.00;101480.97;5086515;28;20052;-75
2024/03/07 06:09:27;;;;;;;18.83;12.10;;;;;;;6.68;93.50;101474.50;5085906;28;20863;-75
2024/03/07 06:11:54;;;;;;;16.85;10.98;;;;;;;6.81;91.92;101474.84;5086405;28;20437;-75
2024/03/07 06:14:24;;;;;;;17.83;11.80;;;;;;;6.69;91.72;101470.69;5070011;28;20060;-75
2024/03/07 06:16:52;;;;;;;20.58;12.23;;;;;;;6.77;91.93;101473.72;5086357;28;20193;-74
2024/03/07 06:19:20;;;;;;;18.27;11.57;;;;;;;6.88;91.34;101468.28;5085760;28;20056;-75
2024/03/07 06:21:48;;;;;;;18.33;12.05;;;;;;;7.01;90.32;101465.03;5086831;28;20095;-75
2024/03/07 06:24:17;;;;;;;21.15;12.43;;;;;;;7.02;89.68;101464.75;5070061;28;20063;-74
2024/03/07 06:26:59;;;;;;;25.52;12.38;;;;;;;7.01;89.97;101465.03;5091671;28;20043;-75
2024/03/07 06:29:28;;;;;;;21.80;13.13;;;;;;;6.92;90.00;101463.91;5091707;28;20067;-74
2024/03/07 06:31:57;;;;;;;20.00;11.80;;;;;;;6.73;90.98;101464.41;5090227;28;20052;-73
2024/03/07 06:34:27;;;;;;;20.30;12.10;;;;;;;6.91;90.63;101457.59;5073716;28;20056;-74
2024/03/07 06:36:55;;;;;;;20.63;12.02;;;;;;;6.80;90.46;101461.41;5093858;28;20048;-73
2024/03/07 06:39:23;;;;;;;22.65;12.02;;;;;;;6.88;90.75;101465.53;5102063;28;20064;-73
2024/03/07 06:41:51;;;;;;;20.70;12.63;;;;;;;6.72;91.33;101468.25;5073559;28;20068;-75
2024/03/07 06:44:23;;;;;;;22.75;13.00;;;;;;;6.58;92.66;101461.63;5076076;28;20059;-74
2024/03/07 06:46:50;;;;;;;24.90;12.85;;;;;;;6.69;92.76;101467.97;5073303;28;20058;-73
2024/03/07 06:49:18;;;;;;;23.25;13.25;;;;;;;6.77;92.54;101461.94;5089986;28;20258;-72
2024/03/07 06:51:45;;;;;;;20.80;13.00;;;;;;;6.62;92.92;101459.19;5088522;28;20059;-74
2024/03/07 06:54:13;;;;;;;22.52;12.43;;;;;;;6.87;92.83;101461.97;5089121;28;20463;-76
2024/03/07 06:56:43;;;;;;;21.20;13.77;;;;;;;7.00;92.58;101457.88;5072275;28;20680;-75
2024/03/07 06:59:11;;;;;;;22.65;13.10;;;;;;;7.02;91.68;101461.19;5072580;28;20747;-73
2024/03/07 07:01:42;;;;;;;22.85;13.02;;;;;;;7.20;90.84;101457.94;5071946;28;20052;-74
2024/03/07 07:04:12;;;;;;;25.48;13.70;;;;;;;7.07;90.33;101466.66;5071639;28;20064;-75
2024/03/07 07:06:42;;;;;;;;;;;;;;;7.11;91.28;101454.91;5069804;28;20052;-75
2024/03/07 07:09:10;;;;;;;22.98;13.18;;;;;;;7.02;90.69;101450.22;5068702;28;20022;-74
2024/03/07 07:11:37;;;;;;;25.15;13.30;;;;;;;6.87;91.50;101444.75;5091427;28;20059;-74
2024/03/07 07:14:05;;;;;;;27.52;13.60;;;;;;;6.80;91.97;101455.94;5090078;28;20048;-74
2024/03/07 07:16:35;;;;;;;20.85;11.88;;;;;;;7.08;91.81;101439.00;5073057;28;20044;-75
2024/03/07 07:19:03;;;;;;;;;;;;;;;7.13;88.44;101438.19;5056051;28;20072;-75
2024/03/07 07:21:30;;;;;;;22.38;10.88;;;;;;;7.08;88.88;101435.47;5089242;28;19924;-74
2024/03/07 07:23:57;;;;;;;18.98;10.20;;;;;;;7.41;88.19;101440.41;5072268;28;20059;-74
2024/03/07 07:26:25;;;;;;;23.80;9.40;;;;;;;7.50;85.91;101433.25;5089207;28;20055;-73
2024/03/07 07:28:54;;;;;;;20.10;11.05;;;;;;;7.26;86.07;101434.91;5071702;28;20055;-73
2024/03/07 07:31:21;;;;;;;23.25;10.52;;;;;;;7.43;86.21;101427.22;5104686;28;20052;-75
2024/03/07 07:33:49;;;;;;;19.45;11.27;;;;;;;7.54;86.40;101424.22;5073485;28;20052;-74
2024/03/07 07:36:18;;;;;;;25.27;12.50;;;;;;;7.70;86.14;101425.00;5084954;28;20051;-74
2024/03/07 07:38:45;;;;;;;21.38;11.23;;;;;;;7.67;85.46;101422.81;5057336;28;20107;-74
2024/03/07 07:41:12;;;;;;;14.88;8.75;;;;;;;8.04;82.22;101417.78;5080842;28;20090;-74
2024/03/07 07:43:41;;;;;;;12.38;6.75;;;;;;;8.31;79.66;101415.50;5109468;28;20051;-74
2024/03/07 07:46:10;;;;;;;18.73;7.90;;;;;;;8.09;78.36;101411.47;5093270;28;20052;-74
2024/03/07 07:48:38;;;;;;;13.85;7.10;;;;;;;8.32;77.67;101414.41;5101883;28;20059;-75
2024/03/07 07:51:06;;;;;;;16.20;7.35;;;;;;;8.31;76.01;101407.28;5058792;28;20116;-76
2024/03/07 07:53:37;;;;;;;17.65;8.13;;;;;;;8.44;75.37;101412.13;5090092;28;20063;-75
2024/03/07 07:56:04;;;;;;;12.73;7.15;;;;;;;8.36;75.12;101410.00;5091121;28;20052;-75
2024/03/07 07:58:32;;;;;;;14.07;6.65;;;;;;;8.49;74.46;101403.06;5088891;28;20059;-75
2024/03/07 08:00:59;;;;;;;15.32;7.28;;;;;;;8.61;73.95;101401.59;5056828;28;20052;-74
2024/03/07 08:03:27;;;;;;;13.30;6.97;;;;;;;8.71;73.80;101396.06;5066750;28;20040;-74
2024/03/07 08:05:55;;;;;;;15.20;7.55;;;;;;;8.78;72.82;101399.31;5083980;28;20052;-71
2024/03/07 08:08:23;;;;;;;11.43;7.03;;;;;;;8.63;73.25;101398.59;5087826;28;20044;-71
2024/03/07 08:10:50;;;;;;;16.88;8.00;;;;;;;8.57;72.84;101394.22;5088336;28;20040;-70
2024/03/07 08:13:18;;;;;;;15.07;7.78;;;;;;;8.41;73.52;101387.19;5083188;28;20058;-70
2024/03/07 08:15:45;;;;;;;13.55;7.60;;;;;;;8.20;74.39;101380.94;5071479;28;20075;-73
2024/03/07 08:18:17;;;;;;;14.30;7.55;;;;;;;8.64;74.40;101378.25;5055196;28;20055;-72
2024/03/07 08:20:44;;;;;;;15.05;7.75;;;;;;;8.76;72.31;101378.72;5050632;28;20057;-71
2024/03/07 08:23:15;;;;;;;14.10;7.50;;;;;;;8.89;72.06;101369.84;5071471;28;20048;-71
2024/03/07 08:25:46;;;;;;;19.20;8.85;;;;;;;8.79;72.03;101365.25;5086332;28;20051;-71
2024/03/07 08:28:14;;;;;;;18.85;7.78;;;;;;;8.69;72.05;101362.56;5083275;28;20456;-72
2024/03/07 08:30:42;;;;;;;14.50;7.72;;;;;;;8.89;72.13;101356.91;5061804;28;20495;-73
2024/03/07 08:33:09;;;;;;;13.88;7.90;;;;;;;9.14;71.40;101350.41;5097724;28;20055;-72
2024/03/07 08:35:38;;;;;;;19.92;8.00;;;;;;;9.25;70.57;101351.13;5046558;28;20059;-73
2024/03/07 08:38:05;;;;;;;16.42;8.18;;;;;;;9.40;70.42;101346.28;5098358;28;20055;-72
2024/03/07 08:40:33;;;;;;;13.27;7.53;;;;;;;9.57;69.76;101354.91;5095562;28;20795;-72
2024/03/07 08:43:02;;;;;;;21.83;8.27;;;;;;;9.61;69.22;101350.47;5076276;28;20051;-74
2024/03/07 08:45:33;;;;;;;15.80;7.57;;;;;;;9.74;69.08;101359.97;5081276;28;20059;-76
2024/03/07 08:48:08;;;;;;;14.38;7.88;;;;;;;9.60;69.51;101351.59;5091311;28;20048;-75
2024/03/07 08:50:37;;;;;;;21.20;8.02;;;;;;;9.99;68.64;101351.41;5088154;28;20040;-74
2024/03/07 08:53:05;;;;;;;19.50;9.38;;;;;;;10.23;67.82;101350.28;5084215;28;20055;-70
2024/03/07 08:55:35;;;;;;;15.80;8.73;;;;;;;10.38;67.56;101348.44;5077121;28;20059;-75
2024/03/07 08:58:03;;;;;;;;;;;;;;;10.45;66.64;101348.91;5090347;28;20556;-75
2024/03/07 09:00:31;;;;;;;15.73;8.60;;;;;;;10.51;66.40;101343.03;5092363;28;19936;-74
2024/03/07 09:03:09;;;;;;;15.88;7.75;;;;;;;9.98;67.41;101341.53;5093326;28;20063;-72
2024/03/07 09:05:37;;;;;;;23.55;7.35;;;;;;;10.38;67.36;101340.19;5076691;28;20048;-74
2024/03/07 09:08:05;;;;;;;16.38;7.43;;;;;;;10.35;66.14;101338.03;5092588;28;20050;-75
2024/03/07 09:10:33;;;;;;;17.58;7.65;;;;;;;10.48;66.25;101338.09;5071947;28;20051;-73
2024/03/07 09:13:00;;;;;;;15.38;7.32;;;;;;;10.58;64.75;101346.25;5093005;28;20059;-74
2024/03/07 09:15:28;;;;;;;15.65;7.00;;;;;;;10.39;64.03;101339.09;5076151;28;20062;-73
2024/03/07 09:17:55;;;;;;;12.68;6.70;;;;;;;10.04;65.12;101337.59;5092162;28;20040;-74
2024/03/07 09:20:24;;;;;;;18.40;6.85;;;;;;;10.05;65.52;101334.56;5073565;28;20056;-74
2024/03/07 09:22:54;;;;;;;17.13;7.82;;;;;;;10.23;65.82;101341.25;5052734;28;20063;-74
2024/03/07 09:25:24;;;;;;;18.33;8.40;;;;;;;10.35;65.23;101329.78;5089255;28;20063;-74
2024/03/07 09:27:51;;;;;;;12.70;7.67;;;;;;;10.33;65.21;101330.06;5089158;28;20670;-73
2024/03/07 09:30:24;;;;;;;13.82;7.70;;;;;;;10.28;65.03;101316.38;5083941;28;20328;-74
2024/03/07 09:32:52;;;;;;;17.02;7.78;;;;;;;10.39;64.89;101319.81;5083316;28;20060;-75
2024/03/07 09:35:21;;;;;;;14.88;7.15;;;;;;;10.29;63.49;101307.00;5088180;28;20047;-73
2024/03/07 09:37:48;;;;;;;16.83;7.50;;;;;;;10.47;64.00;101310.88;5070150;28;20052;-74
2024/03/07 09:40:16;;;;;;;21.65;7.20;;;;;;;10.82;63.72;101302.06;5069731;28;20066;-76
2024/03/07 09:42:51;;;;;;;16.65;7.13;;;;;;;10.91;62.51;101301.03;5038308;28;20056;-74
2024/03/07 09:45:20;;;;;;;13.30;6.40;;;;;;;10.63;62.79;101296.59;5081784;28;20134;-74
2024/03/07 09:47:51;;;;;;;14.63;7.10;;;;;;;10.58;62.57;101293.91;5066942;28;20479;-74
2024/03/07 09:50:24;;;;;;;15.27;7.35;;;;;;;10.42;63.02;101292.50;5086610;28;20071;-74
2024/03/07 09:52:53;;;;;;;15.15;7.20;;;;;;;10.55;63.49;101288.97;5069925;28;20052;-75
2024/03/07 09:55:24;;;;;;;16.08;7.53;;;;;;;10.28;63.65;101302.63;5078704;28;20052;-74
2024/03/07 09:57:59;;;;;;;14.52;7.68;;;;;;;10.48;63.53;101283.03;5082073;28;20055;-73
2024/03/07 10:00:27;;;;;;;13.75;7.15;;;;;;;10.60;63.70;101277.88;5074658;28;20059;-74
2024/03/07 10:03:06;;;;;;;13.95;7.63;;;;;;;10.55;63.79;101275.19;5091621;28;20700;-74
2024/03/07 10:05:37;;;;;;;23.65;10.90;;;;;;;10.64;63.46;101275.34;5082890;28;20055;-72
2024/03/07 10:08:06;;;;;;;18.60;9.13;;;;;;;10.94;63.33;101275.66;5086509;28;20054;-73
2024/03/07 10:10:34;;;;;;;18.52;8.45;;;;;;;11.28;62.88;101272.53;5092061;28;20047;-74
2024/03/07 10:13:02;;;;;;;16.50;8.93;;;;;;;11.18;62.19;101275.50;5088553;28;20058;-74
2024/03/07 10:15:32;;;;;;;16.88;9.68;;;;;;;11.11;62.96;101269.56;5070734;28;20056;-74
2024/03/07 10:18:00;;;;;;;17.15;8.77;;;;;;;11.04;63.15;101266.38;5081859;28;20059;-75
2024/03/07 10:20:29;;;;;;;16.88;9.48;;;;;;;11.18;63.48;101264.47;5072346;28;20059;-75
2024/03/07 10:22:57;;;;;;;16.70;9.35;;;;;;;11.29;63.10;101264.00;5076559;28;20051;-74
2024/03/07 10:25:30;;;;;;;26.65;9.95;;;;;;;11.17;63.47;101262.84;5074130;28;20052;-74
2024/03/07 10:28:00;;;;;;;18.92;9.73;;;;;;;11.42;63.61;101256.81;5070965;28;20059;-74
2024/03/07 10:30:39;;;;;;;25.45;15.60;;;;;;;11.58;62.44;101257.34;5081766;28;20067;-74
2024/03/07 10:33:12;;;;;;;17.75;9.57;;;;;;;11.44;63.37;101254.59;5074383;28;20052;-69
2024/03/07 10:35:40;;;;;;;19.75;9.80;;;;;;;11.51;63.69;101248.66;5085120;28;20059;-74
2024/03/07 10:38:11;;;;;;;23.80;10.48;;;;;;;11.57;63.34;101244.69;5085622;28;20048;-74
2024/03/07 10:40:42;;;;;;;22.90;10.43;;;;;;;11.45;63.32;101244.38;5053295;28;20518;-74
2024/03/07 10:43:11;;;;;;;23.77;12.68;;;;;;;11.29;64.93;101250.19;5084196;28;20063;-74
2024/03/07 10:45:45;;;;;;;21.75;12.52;;;;;;;11.29;65.44;101241.94;5076991;28;20467;-74
2024/03/07 10:48:14;;;;;;;25.80;11.98;;;;;;;11.50;65.12;101238.75;5084968;28;20047;-74
2024/03/07 10:51:06;;;;;;;19.15;11.68;;;;;;;11.59;64.46;101234.16;5091403;28;20056;-74
2024/03/07 10:53:55;;;;;;;25.00;13.00;;;;;;;11.53;64.89;101236.19;5076779;28;20063;-76
2024/03/07 10:56:37;;;;;;;22.33;12.98;;;;;;;11.51;65.23;101230.16;5067413;28;20056;-74
2024/03/07 10:59:24;;;;;;;22.80;13.10;;;;;;;11.38;66.07;101229.03;5098593;28;20069;-75
2024/03/07 11:02:29;;;;;;;24.27;13.15;;;;;;;11.73;65.76;101222.03;5069217;28;20044;-74
2024/03/07 11:04:56;;;;;;;26.58;14.35;;;;;;;11.73;65.27;101212.91;5090643;28;20509;-75
2024/03/07 11:07:24;;;;;;;27.75;15.90;;;;;;;11.75;65.64;101213.44;5073731;28;20058;-75
2024/03/07 11:09:52;;;;;;;24.65;15.45;;;;;;;11.86;65.31;101214.81;5072023;28;20068;-75
2024/03/07 11:12:21;;;;;;;28.38;17.38;;;;;;;11.89;64.76;101208.72;5082519;28;20040;-73
2024/03/07 11:14:50;;;;;;;31.58;17.67;;;;;;;11.89;65.23;101201.22;5083248;28;20056;-76
2024/03/07 11:17:22;;;;;;;27.13;18.00;;;;;;;11.94;65.61;101200.31;5081359;28;20048;-75
2024/03/07 11:19:50;;;;;;;34.50;18.88;;;;;;;12.10;65.79;101196.88;5048017;28;20059;-75
2024/03/07 11:22:30;;;;;;;30.45;17.95;;;;;;;12.35;64.95;101198.22;5071413;28;20056;-75
2024/03/07 11:25:10;;;;;;;27.73;14.95;;;;;;;12.22;64.35;101199.09;5078092;28;20043;-74
2024/03/07 11:27:39;;;;;;;29.40;17.33;;;;;;;12.10;64.80;101196.06;5085788;28;20043;-75